sensor_id;sensor_type;location;lat;lon;timestamp;P1;durP1;ratioP1;P2;durP2;ratioP2
52396;SDS011;38322;53.108;6.308;2022-11-20T06:01:59;13.35;;;8.93;;
52396;SDS011;38322;53.108;6.308;2022-11-20T06:04:25;17.63;;;9.52;;
52396;SDS011;38322;53.108;6.308;2022-11-20T06:06:51;12.38;;;9.77;;
52396;SDS011;38322;53.108;6.308;2022-11-20T06:09:16;13.07;;;8.73;;
52396;SDS011;38322;53.108;6.308;2022-11-20T06:11:42;14.43;;;8.52;;
52396;SDS011;38322;53.108;6.308;2022-11-20T06:14:08;14.55;;;9.93;;
52396;SDS011;38322;53.108;6.308;2022-11-20T06:16:34;11.30;;;8.07;;
52396;SDS011;38322;53.108;6.308;2022-11-20T06:18:59;9.70;;;7.85;;
52396;SDS011;38322;53.108;6.308;2022-11-20T06:21:25;10.32;;;7.60;;
52396;SDS011;38322;53.108;6.308;2022-11-20T06:23:52;12.32;;;8.35;;
52396;SDS011;38322;53.108;6.308;2022-11-20T06:26:19;11.93;;;7.65;;
52396;SDS011;38322;53.108;6.308;2022-11-20T06:28:47;13.23;;;8.93;;
52396;SDS011;38322;53.108;6.308;2022-11-20T06:31:13;12.73;;;9.70;;
52396;SDS011;38322;53.108;6.308;2022-11-20T06:33:41;12.93;;;8.68;;
52396;SDS011;38322;53.108;6.308;2022-11-20T06:36:09;14.00;;;7.68;;
52396;SDS011;38322;53.108;6.308;2022-11-20T06:38:37;12.85;;;9.07;;
52396;SDS011;38322;53.108;6.308;2022-11-20T06:41:04;16.73;;;9.65;;
52396;SDS011;38322;53.108;6.308;2022-11-20T06:43:30;10.35;;;6.95;;
52396;SDS011;38322;53.108;6.308;2022-11-20T06:45:57;11.38;;;7.80;;
52396;SDS011;38322;53.108;6.308;2022-11-20T06:48:24;12.35;;;8.82;;
52396;SDS011;38322;53.108;6.308;2022-11-20T06:50:52;14.60;;;8.15;;
52396;SDS011;38322;53.108;6.308;2022-11-20T06:53:18;12.52;;;8.68;;
52396;SDS011;38322;53.108;6.308;2022-11-20T06:55:44;12.50;;;7.93;;
52396;SDS011;38322;53.108;6.308;2022-11-20T06:58:11;14.35;;;8.65;;
52396;SDS011;38322;53.108;6.308;2022-11-20T07:00:38;12.90;;;8.73;;
52396;SDS011;38322;53.108;6.308;2022-11-20T07:03:04;14.27;;;8.00;;
52396;SDS011;38322;53.108;6.308;2022-11-20T07:05:30;13.15;;;7.40;;
52396;SDS011;38322;53.108;6.308;2022-11-20T07:07:56;15.15;;;9.55;;
52396;SDS011;38322;53.108;6.308;2022-11-20T07:10:23;12.20;;;7.97;;
52396;SDS011;38322;53.108;6.308;2022-11-20T07:12:49;12.48;;;8.32;;
52396;SDS011;38322;53.108;6.308;2022-11-20T07:15:16;12.25;;;8.30;;
52396;SDS011;38322;53.108;6.308;2022-11-20T07:17:42;17.13;;;11.15;;
52396;SDS011;38322;53.108;6.308;2022-11-20T07:20:08;11.77;;;8.68;;
52396;SDS011;38322;53.108;6.308;2022-11-20T07:22:35;11.90;;;8.15;;
52396;SDS011;38322;53.108;6.308;2022-11-20T07:25:00;14.65;;;9.00;;
52396;SDS011;38322;53.108;6.308;2022-11-20T07:27:27;13.38;;;8.93;;
52396;SDS011;38322;53.108;6.308;2022-11-20T07:29:53;11.93;;;8.20;;
52396;SDS011;38322;53.108;6.308;2022-11-20T07:32:19;11.70;;;9.07;;
52396;SDS011;38322;53.108;6.308;2022-11-20T07:34:44;14.07;;;9.45;;
52396;SDS011;38322;53.108;6.308;2022-11-20T07:37:11;13.73;;;9.38;;
52396;SDS011;38322;53.108;6.308;2022-11-20T07:39:37;12.85;;;8.38;;
52396;SDS011;38322;53.108;6.308;2022-11-20T07:42:03;11.40;;;8.25;;
52396;SDS011;38322;53.108;6.308;2022-11-20T07:44:28;15.18;;;8.57;;
52396;SDS011;38322;53.108;6.308;2022-11-20T07:46:54;12.25;;;7.93;;
52396;SDS011;38322;53.108;6.308;2022-11-20T07:49:20;18.25;;;10.43;;
52396;SDS011;38322;53.108;6.308;2022-11-20T07:51:46;12.70;;;8.23;;
52396;SDS011;38322;53.108;6.308;2022-11-20T07:54:12;12.80;;;8.48;;
52396;SDS011;38322;53.108;6.308;2022-11-20T07:56:37;14.07;;;8.43;;
52396;SDS011;38322;53.108;6.308;2022-11-20T07:59:04;11.70;;;8.45;;
52396;SDS011;38322;53.108;6.308;2022-11-20T08:01:29;12.18;;;7.95;;
52396;SDS011;38322;53.108;6.308;2022-11-20T08:03:55;14.35;;;9.93;;
52396;SDS011;38322;53.108;6.308;2022-11-20T08:06:21;14.75;;;9.27;;
52396;SDS011;38322;53.108;6.308;2022-11-20T08:08:47;14.32;;;9.18;;
52396;SDS011;38322;53.108;6.308;2022-11-20T08:11:12;12.00;;;8.40;;
52396;SDS011;38322;53.108;6.308;2022-11-20T08:13:57;12.32;;;9.43;;
52396;SDS011;38322;53.108;6.308;2022-11-20T08:16:40;12.70;;;9.32;;
52396;SDS011;38322;53.108;6.308;2022-11-20T08:19:07;15.05;;;9.70;;
52396;SDS011;38322;53.108;6.308;2022-11-20T08:21:33;14.65;;;8.98;;
52396;SDS011;38322;53.108;6.308;2022-11-20T08:23:59;14.35;;;9.65;;
52396;SDS011;38322;53.108;6.308;2022-11-20T08:26:26;13.70;;;8.85;;
52396;SDS011;38322;53.108;6.308;2022-11-20T08:28:53;13.88;;;9.00;;
52396;SDS011;38322;53.108;6.308;2022-11-20T08:31:20;15.57;;;9.15;;
52396;SDS011;38322;53.108;6.308;2022-11-20T08:33:46;11.95;;;8.73;;
52396;SDS011;38322;53.108;6.308;2022-11-20T08:36:12;17.00;;;10.38;;
52396;SDS011;38322;53.108;6.308;2022-11-20T08:38:38;13.60;;;8.98;;
52396;SDS011;38322;53.108;6.308;2022-11-20T08:41:04;13.40;;;9.00;;
52396;SDS011;38322;53.108;6.308;2022-11-20T08:43:49;12.75;;;8.52;;
52396;SDS011;38322;53.108;6.308;2022-11-20T08:46:16;15.30;;;9.82;;
52396;SDS011;38322;53.108;6.308;2022-11-20T08:48:42;15.65;;;10.15;;
52396;SDS011;38322;53.108;6.308;2022-11-20T08:51:09;13.35;;;8.82;;
52396;SDS011;38322;53.108;6.308;2022-11-20T08:53:35;12.70;;;9.55;;
52396;SDS011;38322;53.108;6.308;2022-11-20T08:56:01;12.77;;;8.48;;
52396;SDS011;38322;53.108;6.308;2022-11-20T08:58:27;15.45;;;10.57;;
52396;SDS011;38322;53.108;6.308;2022-11-20T09:00:53;13.20;;;10.10;;
52396;SDS011;38322;53.108;6.308;2022-11-20T09:03:19;12.32;;;8.63;;
52396;SDS011;38322;53.108;6.308;2022-11-20T09:05:45;11.63;;;7.63;;
52396;SDS011;38322;53.108;6.308;2022-11-20T09:08:11;11.73;;;8.57;;
52396;SDS011;38322;53.108;6.308;2022-11-20T09:10:37;14.90;;;9.02;;
52396;SDS011;38322;53.108;6.308;2022-11-20T09:13:04;12.30;;;9.52;;
52396;SDS011;38322;53.108;6.308;2022-11-20T09:15:30;13.98;;;9.68;;
52396;SDS011;38322;53.108;6.308;2022-11-20T09:17:57;11.10;;;8.32;;
52396;SDS011;38322;53.108;6.308;2022-11-20T09:20:25;11.32;;;7.90;;
52396;SDS011;38322;53.108;6.308;2022-11-20T09:22:51;10.88;;;8.10;;
52396;SDS011;38322;53.108;6.308;2022-11-20T09:25:17;11.65;;;7.88;;
52396;SDS011;38322;53.108;6.308;2022-11-20T09:27:43;12.90;;;7.60;;
52396;SDS011;38322;53.108;6.308;2022-11-20T09:30:11;13.55;;;9.35;;
52396;SDS011;38322;53.108;6.308;2022-11-20T09:32:39;13.15;;;8.80;;
52396;SDS011;38322;53.108;6.308;2022-11-20T09:35:05;12.65;;;8.80;;
52396;SDS011;38322;53.108;6.308;2022-11-20T09:37:32;12.82;;;9.73;;
52396;SDS011;38322;53.108;6.308;2022-11-20T09:39:58;10.77;;;8.00;;
52396;SDS011;38322;53.108;6.308;2022-11-20T09:42:39;14.05;;;8.70;;
52396;SDS011;38322;53.108;6.308;2022-11-20T09:45:15;14.70;;;8.95;;
52396;SDS011;38322;53.108;6.308;2022-11-20T09:50:31;11.20;;;8.57;;
52396;SDS011;38322;53.108;6.308;2022-11-20T09:55:31;13.65;;;8.93;;
52396;SDS011;38322;53.108;6.308;2022-11-20T09:57:59;14.90;;;9.10;;
52396;SDS011;38322;53.108;6.308;2022-11-20T10:00:25;15.45;;;9.43;;
52396;SDS011;38322;53.108;6.308;2022-11-20T10:02:55;13.40;;;9.30;;
52396;SDS011;38322;53.108;6.308;2022-11-20T10:05:27;10.75;;;7.43;;
52396;SDS011;38322;53.108;6.308;2022-11-20T10:13:12;12.85;;;9.18;;
52396;SDS011;38322;53.108;6.308;2022-11-20T10:16:03;13.30;;;9.07;;
52396;SDS011;38322;53.108;6.308;2022-11-20T10:18:57;11.55;;;8.10;;
52396;SDS011;38322;53.108;6.308;2022-11-20T10:27:14;11.40;;;7.80;;
52396;SDS011;38322;53.108;6.308;2022-11-20T10:32:36;12.90;;;8.38;;
52396;SDS011;38322;53.108;6.308;2022-11-20T10:37:40;10.88;;;8.52;;
52396;SDS011;38322;53.108;6.308;2022-11-20T10:40:18;13.00;;;8.73;;
52396;SDS011;38322;53.108;6.308;2022-11-20T10:42:49;17.02;;;9.30;;
52396;SDS011;38322;53.108;6.308;2022-11-20T10:47:53;14.70;;;8.63;;
52396;SDS011;38322;53.108;6.308;2022-11-20T10:50:23;15.15;;;9.32;;
52396;SDS011;38322;53.108;6.308;2022-11-20T10:55:33;13.55;;;9.38;;
52396;SDS011;38322;53.108;6.308;2022-11-20T10:58:14;12.50;;;9.20;;
52396;SDS011;38322;53.108;6.308;2022-11-20T11:00:48;12.00;;;8.55;;
52396;SDS011;38322;53.108;6.308;2022-11-20T11:03:20;9.05;;;7.53;;
52396;SDS011;38322;53.108;6.308;2022-11-20T11:08:39;10.63;;;7.55;;
52396;SDS011;38322;53.108;6.308;2022-11-20T11:11:12;9.52;;;6.53;;
52396;SDS011;38322;53.108;6.308;2022-11-20T11:13:50;9.68;;;6.45;;
52396;SDS011;38322;53.108;6.308;2022-11-20T11:16:19;6.57;;;5.88;;
52396;SDS011;38322;53.108;6.308;2022-11-20T11:18:48;9.05;;;5.95;;
52396;SDS011;38322;53.108;6.308;2022-11-20T11:21:19;9.30;;;6.10;;
52396;SDS011;38322;53.108;6.308;2022-11-20T11:23:58;8.40;;;5.57;;
52396;SDS011;38322;53.108;6.308;2022-11-20T11:26:26;8.32;;;5.32;;
52396;SDS011;38322;53.108;6.308;2022-11-20T11:28:53;10.23;;;7.15;;
52396;SDS011;38322;53.108;6.308;2022-11-20T11:31:22;6.63;;;4.85;;
52396;SDS011;38322;53.108;6.308;2022-11-20T11:34:05;4.95;;;3.67;;
52396;SDS011;38322;53.108;6.308;2022-11-20T11:36:34;10.85;;;4.60;;
52396;SDS011;38322;53.108;6.308;2022-11-20T11:39:00;5.55;;;3.88;;
52396;SDS011;38322;53.108;6.308;2022-11-20T11:41:30;6.55;;;4.80;;
52396;SDS011;38322;53.108;6.308;2022-11-20T11:44:04;10.75;;;5.35;;
52396;SDS011;38322;53.108;6.308;2022-11-20T11:47:02;8.02;;;5.50;;
52396;SDS011;38322;53.108;6.308;2022-11-20T11:49:29;9.82;;;4.88;;
52396;SDS011;38322;53.108;6.308;2022-11-20T11:54:27;7.82;;;5.15;;
52396;SDS011;38322;53.108;6.308;2022-11-20T11:57:00;11.65;;;5.50;;
52396;SDS011;38322;53.108;6.308;2022-11-20T12:05:10;8.15;;;4.85;;
52396;SDS011;38322;53.108;6.308;2022-11-20T12:07:58;6.47;;;4.43;;
52396;SDS011;38322;53.108;6.308;2022-11-20T12:15:46;9.38;;;5.15;;
52396;SDS011;38322;53.108;6.308;2022-11-20T12:18:15;5.75;;;4.07;;
52396;SDS011;38322;53.108;6.308;2022-11-20T12:20:45;7.47;;;4.85;;
52396;SDS011;38322;53.108;6.308;2022-11-20T12:23:28;7.13;;;5.25;;
52396;SDS011;38322;53.108;6.308;2022-11-20T12:25:58;6.53;;;5.07;;
52396;SDS011;38322;53.108;6.308;2022-11-20T12:28:34;8.25;;;5.70;;
52396;SDS011;38322;53.108;6.308;2022-11-20T12:31:13;7.57;;;5.95;;
52396;SDS011;38322;53.108;6.308;2022-11-20T12:33:54;12.67;;;6.33;;
52396;SDS011;38322;53.108;6.308;2022-11-20T12:36:27;8.63;;;5.90;;
52396;SDS011;38322;53.108;6.308;2022-11-20T12:39:13;8.73;;;5.07;;
52396;SDS011;38322;53.108;6.308;2022-11-20T12:41:46;9.20;;;6.18;;
52396;SDS011;38322;53.108;6.308;2022-11-20T12:44:53;11.00;;;6.60;;
52396;SDS011;38322;53.108;6.308;2022-11-20T12:53:29;6.32;;;4.35;;
52396;SDS011;38322;53.108;6.308;2022-11-20T12:56:06;7.30;;;4.07;;
52396;SDS011;38322;53.108;6.308;2022-11-20T13:01:27;8.23;;;5.82;;
52396;SDS011;38322;53.108;6.308;2022-11-20T13:04:15;7.68;;;5.25;;
52396;SDS011;38322;53.108;6.308;2022-11-20T13:07:03;7.70;;;5.72;;
52396;SDS011;38322;53.108;6.308;2022-11-20T13:09:33;7.00;;;5.40;;
52396;SDS011;38322;53.108;6.308;2022-11-20T13:14:46;9.05;;;5.13;;
52396;SDS011;38322;53.108;6.308;2022-11-20T13:17:40;7.63;;;5.38;;
52396;SDS011;38322;53.108;6.308;2022-11-20T13:20:13;7.65;;;6.15;;
52396;SDS011;38322;53.108;6.308;2022-11-20T13:25:31;7.53;;;4.70;;
52396;SDS011;38322;53.108;6.308;2022-11-20T13:28:00;7.07;;;4.45;;
52396;SDS011;38322;53.108;6.308;2022-11-20T13:30:35;6.57;;;4.72;;
52396;SDS011;38322;53.108;6.308;2022-11-20T13:35:58;6.82;;;4.47;;
52396;SDS011;38322;53.108;6.308;2022-11-20T13:38:26;7.22;;;5.05;;
52396;SDS011;38322;53.108;6.308;2022-11-20T13:40:57;7.38;;;5.43;;
52396;SDS011;38322;53.108;6.308;2022-11-20T13:43:46;7.57;;;4.93;;
52396;SDS011;38322;53.108;6.308;2022-11-20T13:46:12;8.20;;;6.05;;
52396;SDS011;38322;53.108;6.308;2022-11-20T13:48:41;7.78;;;4.32;;
52396;SDS011;38322;53.108;6.308;2022-11-20T13:51:30;5.15;;;3.47;;
52396;SDS011;38322;53.108;6.308;2022-11-20T13:54:10;5.18;;;3.97;;
52396;SDS011;38322;53.108;6.308;2022-11-20T13:59:43;6.38;;;4.70;;
52396;SDS011;38322;53.108;6.308;2022-11-20T14:02:22;8.75;;;4.47;;
52396;SDS011;38322;53.108;6.308;2022-11-20T14:04:52;8.30;;;5.25;;
52396;SDS011;38322;53.108;6.308;2022-11-20T14:07:20;6.20;;;4.07;;
52396;SDS011;38322;53.108;6.308;2022-11-20T14:09:52;5.87;;;4.63;;
52396;SDS011;38322;53.108;6.308;2022-11-20T14:12:21;7.43;;;4.88;;
52396;SDS011;38322;53.108;6.308;2022-11-20T14:14:50;5.93;;;4.47;;
52396;SDS011;38322;53.108;6.308;2022-11-20T14:17:20;6.20;;;4.63;;
52396;SDS011;38322;53.108;6.308;2022-11-20T14:19:47;5.93;;;4.50;;
52396;SDS011;38322;53.108;6.308;2022-11-20T14:22:21;9.38;;;5.03;;
52396;SDS011;38322;53.108;6.308;2022-11-20T14:24:48;9.10;;;6.75;;
52396;SDS011;38322;53.108;6.308;2022-11-20T14:27:26;9.52;;;5.32;;
52396;SDS011;38322;53.108;6.308;2022-11-20T14:29:53;7.10;;;5.75;;
52396;SDS011;38322;53.108;6.308;2022-11-20T14:32:21;7.07;;;5.35;;
52396;SDS011;38322;53.108;6.308;2022-11-20T14:34:51;9.03;;;5.07;;
52396;SDS011;38322;53.108;6.308;2022-11-20T14:37:20;6.25;;;5.25;;
52396;SDS011;38322;53.108;6.308;2022-11-20T14:39:50;10.32;;;6.75;;
52396;SDS011;38322;53.108;6.308;2022-11-20T14:42:20;10.63;;;6.45;;
52396;SDS011;38322;53.108;6.308;2022-11-20T14:44:47;7.32;;;5.50;;
52396;SDS011;38322;53.108;6.308;2022-11-20T14:47:17;10.00;;;6.53;;
52396;SDS011;38322;53.108;6.308;2022-11-20T14:49:47;8.70;;;6.20;;
52396;SDS011;38322;53.108;6.308;2022-11-20T14:52:18;7.53;;;4.90;;
52396;SDS011;38322;53.108;6.308;2022-11-20T14:54:46;7.97;;;5.60;;
52396;SDS011;38322;53.108;6.308;2022-11-20T14:57:21;8.80;;;5.75;;
52396;SDS011;38322;53.108;6.308;2022-11-20T15:02:39;6.90;;;5.22;;
52396;SDS011;38322;53.108;6.308;2022-11-20T15:05:08;10.07;;;6.13;;
52396;SDS011;38322;53.108;6.308;2022-11-20T15:07:35;6.90;;;5.00;;
52396;SDS011;38322;53.108;6.308;2022-11-20T15:10:05;9.40;;;6.47;;
52396;SDS011;38322;53.108;6.308;2022-11-20T15:12:34;9.40;;;6.47;;
52396;SDS011;38322;53.108;6.308;2022-11-20T15:15:03;7.35;;;4.95;;
52396;SDS011;38322;53.108;6.308;2022-11-20T15:17:31;7.10;;;6.18;;
52396;SDS011;38322;53.108;6.308;2022-11-20T15:20:00;7.75;;;6.60;;
52396;SDS011;38322;53.108;6.308;2022-11-20T15:22:31;8.73;;;5.85;;
52396;SDS011;38322;53.108;6.308;2022-11-20T15:24:56;12.65;;;6.25;;
52396;SDS011;38322;53.108;6.308;2022-11-20T15:27:22;8.45;;;5.95;;
52396;SDS011;38322;53.108;6.308;2022-11-20T15:29:48;8.23;;;6.50;;
52396;SDS011;38322;53.108;6.308;2022-11-20T15:32:14;11.00;;;6.15;;
52396;SDS011;38322;53.108;6.308;2022-11-20T15:34:40;8.70;;;5.75;;
52396;SDS011;38322;53.108;6.308;2022-11-20T15:37:06;7.28;;;5.90;;
52396;SDS011;38322;53.108;6.308;2022-11-20T15:39:32;9.68;;;5.78;;
52396;SDS011;38322;53.108;6.308;2022-11-20T15:41:58;9.90;;;6.38;;
52396;SDS011;38322;53.108;6.308;2022-11-20T15:44:24;7.10;;;5.47;;
52396;SDS011;38322;53.108;6.308;2022-11-20T15:46:50;10.63;;;5.80;;
52396;SDS011;38322;53.108;6.308;2022-11-20T15:49:16;11.57;;;6.43;;
52396;SDS011;38322;53.108;6.308;2022-11-20T15:51:44;9.82;;;6.22;;
52396;SDS011;38322;53.108;6.308;2022-11-20T15:54:14;10.88;;;6.18;;
52396;SDS011;38322;53.108;6.308;2022-11-20T15:56:42;10.20;;;7.88;;
52396;SDS011;38322;53.108;6.308;2022-11-20T15:59:08;9.45;;;6.53;;
52396;SDS011;38322;53.108;6.308;2022-11-20T16:01:34;10.60;;;5.88;;
52396;SDS011;38322;53.108;6.308;2022-11-20T16:04:01;10.60;;;7.00;;
52396;SDS011;38322;53.108;6.308;2022-11-20T16:06:27;10.68;;;8.43;;
52396;SDS011;38322;53.108;6.308;2022-11-20T16:08:53;10.10;;;6.70;;
52396;SDS011;38322;53.108;6.308;2022-11-20T16:11:19;9.20;;;6.70;;
52396;SDS011;38322;53.108;6.308;2022-11-20T16:13:44;11.27;;;7.32;;
52396;SDS011;38322;53.108;6.308;2022-11-20T16:16:30;9.98;;;6.43;;
52396;SDS011;38322;53.108;6.308;2022-11-20T16:19:04;10.98;;;7.75;;
52396;SDS011;38322;53.108;6.308;2022-11-20T16:21:30;10.90;;;8.45;;
52396;SDS011;38322;53.108;6.308;2022-11-20T16:23:58;10.70;;;7.75;;
52396;SDS011;38322;53.108;6.308;2022-11-20T16:26:26;12.68;;;7.88;;
52396;SDS011;38322;53.108;6.308;2022-11-20T16:28:52;15.73;;;8.40;;
52396;SDS011;38322;53.108;6.308;2022-11-20T16:31:19;12.55;;;8.07;;
52396;SDS011;38322;53.108;6.308;2022-11-20T16:33:52;10.80;;;6.95;;
52396;SDS011;38322;53.108;6.308;2022-11-20T16:36:20;11.85;;;7.40;;
52396;SDS011;38322;53.108;6.308;2022-11-20T16:38:55;10.65;;;6.90;;
52396;SDS011;38322;53.108;6.308;2022-11-20T16:41:23;11.57;;;6.97;;
52396;SDS011;38322;53.108;6.308;2022-11-20T16:43:52;11.55;;;7.95;;
52396;SDS011;38322;53.108;6.308;2022-11-20T16:46:20;12.40;;;8.40;;
52396;SDS011;38322;53.108;6.308;2022-11-20T16:48:58;13.38;;;8.32;;
52396;SDS011;38322;53.108;6.308;2022-11-20T16:51:26;10.32;;;7.45;;
52396;SDS011;38322;53.108;6.308;2022-11-20T16:53:54;11.13;;;8.32;;
52396;SDS011;38322;53.108;6.308;2022-11-20T16:56:23;13.73;;;10.48;;
52396;SDS011;38322;53.108;6.308;2022-11-20T16:58:52;12.43;;;8.63;;
52396;SDS011;38322;53.108;6.308;2022-11-20T17:01:22;17.25;;;10.60;;
52396;SDS011;38322;53.108;6.308;2022-11-20T17:04:03;17.88;;;12.23;;
52396;SDS011;38322;53.108;6.308;2022-11-20T17:06:31;15.80;;;10.88;;
52396;SDS011;38322;53.108;6.308;2022-11-20T17:08:58;14.93;;;11.27;;
52396;SDS011;38322;53.108;6.308;2022-11-20T17:11:24;13.90;;;9.73;;
52396;SDS011;38322;53.108;6.308;2022-11-20T17:13:51;14.93;;;9.18;;
52396;SDS011;38322;53.108;6.308;2022-11-20T17:16:18;13.23;;;9.50;;
52396;SDS011;38322;53.108;6.308;2022-11-20T17:18:45;19.27;;;12.00;;
52396;SDS011;38322;53.108;6.308;2022-11-20T17:21:11;14.15;;;10.35;;
52396;SDS011;38322;53.108;6.308;2022-11-20T17:23:38;13.88;;;9.80;;
52396;SDS011;38322;53.108;6.308;2022-11-20T17:26:07;18.35;;;12.52;;
52396;SDS011;38322;53.108;6.308;2022-11-20T17:28:35;16.23;;;10.93;;
52396;SDS011;38322;53.108;6.308;2022-11-20T17:31:03;13.80;;;10.23;;
52396;SDS011;38322;53.108;6.308;2022-11-20T17:33:35;14.88;;;9.68;;
52396;SDS011;38322;53.108;6.308;2022-11-20T17:36:03;13.73;;;10.35;;
52396;SDS011;38322;53.108;6.308;2022-11-20T17:38:29;17.67;;;12.05;;
52396;SDS011;38322;53.108;6.308;2022-11-20T17:41:02;15.05;;;9.65;;
52396;SDS011;38322;53.108;6.308;2022-11-20T17:43:29;16.90;;;11.95;;
52396;SDS011;38322;53.108;6.308;2022-11-20T17:45:56;17.85;;;11.95;;
52396;SDS011;38322;53.108;6.308;2022-11-20T17:48:22;15.95;;;10.52;;
52396;SDS011;38322;53.108;6.308;2022-11-20T17:50:48;18.40;;;10.52;;
52396;SDS011;38322;53.108;6.308;2022-11-20T17:56:55;15.65;;;10.93;;
52396;SDS011;38322;53.108;6.308;2022-11-20T17:59:40;17.00;;;12.07;;
52396;SDS011;38322;53.108;6.308;2022-11-20T18:02:06;17.25;;;11.27;;
52396;SDS011;38322;53.108;6.308;2022-11-20T18:04:31;16.10;;;10.30;;
52396;SDS011;38322;53.108;6.308;2022-11-20T18:06:57;15.27;;;11.18;;
52396;SDS011;38322;53.108;6.308;2022-11-20T18:09:23;13.88;;;9.98;;
52396;SDS011;38322;53.108;6.308;2022-11-20T18:11:49;15.55;;;10.52;;
52396;SDS011;38322;53.108;6.308;2022-11-20T18:14:15;18.20;;;12.05;;
52396;SDS011;38322;53.108;6.308;2022-11-20T18:16:51;16.98;;;11.60;;
52396;SDS011;38322;53.108;6.308;2022-11-20T18:19:20;15.75;;;10.20;;
52396;SDS011;38322;53.108;6.308;2022-11-20T18:21:49;16.65;;;10.85;;
52396;SDS011;38322;53.108;6.308;2022-11-20T18:24:15;14.50;;;10.23;;
52396;SDS011;38322;53.108;6.308;2022-11-20T18:26:41;14.93;;;11.50;;
52396;SDS011;38322;53.108;6.308;2022-11-20T18:29:06;16.20;;;11.20;;
52396;SDS011;38322;53.108;6.308;2022-11-20T18:31:33;19.85;;;12.38;;
52396;SDS011;38322;53.108;6.308;2022-11-20T18:33:58;15.48;;;10.73;;
52396;SDS011;38322;53.108;6.308;2022-11-20T18:36:26;16.52;;;11.13;;
52396;SDS011;38322;53.108;6.308;2022-11-20T18:38:54;16.85;;;11.50;;
52396;SDS011;38322;53.108;6.308;2022-11-20T18:41:22;21.83;;;14.07;;
52396;SDS011;38322;53.108;6.308;2022-11-20T18:44:12;14.00;;;10.20;;
52396;SDS011;38322;53.108;6.308;2022-11-20T18:46:59;16.92;;;11.25;;
52396;SDS011;38322;53.108;6.308;2022-11-20T18:49:25;17.45;;;12.10;;
52396;SDS011;38322;53.108;6.308;2022-11-20T18:51:51;15.63;;;11.05;;
52396;SDS011;38322;53.108;6.308;2022-11-20T18:54:17;17.75;;;11.07;;
52396;SDS011;38322;53.108;6.308;2022-11-20T18:56:43;18.08;;;11.70;;
52396;SDS011;38322;53.108;6.308;2022-11-20T18:59:09;19.13;;;13.45;;
52396;SDS011;38322;53.108;6.308;2022-11-20T19:01:36;18.90;;;12.50;;
52396;SDS011;38322;53.108;6.308;2022-11-20T19:04:06;22.20;;;14.98;;
52396;SDS011;38322;53.108;6.308;2022-11-20T19:06:34;19.65;;;13.15;;
52396;SDS011;38322;53.108;6.308;2022-11-20T19:09:00;18.70;;;12.90;;
52396;SDS011;38322;53.108;6.308;2022-11-20T19:11:28;21.15;;;13.45;;
52396;SDS011;38322;53.108;6.308;2022-11-20T19:13:55;20.38;;;12.68;;
52396;SDS011;38322;53.108;6.308;2022-11-20T19:16:21;18.23;;;13.35;;
52396;SDS011;38322;53.108;6.308;2022-11-20T19:18:46;20.42;;;13.38;;
52396;SDS011;38322;53.108;6.308;2022-11-20T19:21:14;19.63;;;13.82;;
52396;SDS011;38322;53.108;6.308;2022-11-20T19:23:42;20.58;;;14.05;;
52396;SDS011;38322;53.108;6.308;2022-11-20T19:26:11;21.42;;;14.35;;
52396;SDS011;38322;53.108;6.308;2022-11-20T19:28:37;23.50;;;14.00;;
52396;SDS011;38322;53.108;6.308;2022-11-20T19:31:05;19.88;;;14.02;;
52396;SDS011;38322;53.108;6.308;2022-11-20T19:33:33;24.33;;;15.48;;
52396;SDS011;38322;53.108;6.308;2022-11-20T19:36:07;19.58;;;13.32;;
52396;SDS011;38322;53.108;6.308;2022-11-20T19:38:36;19.55;;;13.27;;
52396;SDS011;38322;53.108;6.308;2022-11-20T19:41:02;21.67;;;12.90;;
52396;SDS011;38322;53.108;6.308;2022-11-20T19:43:28;24.50;;;15.07;;
52396;SDS011;38322;53.108;6.308;2022-11-20T19:45:54;21.58;;;15.02;;
52396;SDS011;38322;53.108;6.308;2022-11-20T19:48:20;21.70;;;15.10;;
52396;SDS011;38322;53.108;6.308;2022-11-20T19:50:46;24.55;;;14.77;;
52396;SDS011;38322;53.108;6.308;2022-11-20T19:53:12;21.92;;;15.45;;
52396;SDS011;38322;53.108;6.308;2022-11-20T19:55:38;23.83;;;14.95;;
52396;SDS011;38322;53.108;6.308;2022-11-20T19:58:03;24.42;;;15.98;;
52396;SDS011;38322;53.108;6.308;2022-11-20T20:00:29;28.30;;;16.00;;
52396;SDS011;38322;53.108;6.308;2022-11-20T20:02:55;23.67;;;14.80;;
52396;SDS011;38322;53.108;6.308;2022-11-20T20:05:21;26.08;;;17.58;;
52396;SDS011;38322;53.108;6.308;2022-11-20T20:07:47;26.02;;;17.10;;
52396;SDS011;38322;53.108;6.308;2022-11-20T20:10:13;23.52;;;16.65;;
52396;SDS011;38322;53.108;6.308;2022-11-20T20:12:39;27.58;;;17.73;;
52396;SDS011;38322;53.108;6.308;2022-11-20T20:15:05;24.67;;;16.92;;
52396;SDS011;38322;53.108;6.308;2022-11-20T20:17:31;27.13;;;17.88;;
52396;SDS011;38322;53.108;6.308;2022-11-20T20:19:57;25.38;;;17.23;;
52396;SDS011;38322;53.108;6.308;2022-11-20T20:22:23;29.13;;;16.38;;
52396;SDS011;38322;53.108;6.308;2022-11-20T20:24:49;25.83;;;16.73;;
52396;SDS011;38322;53.108;6.308;2022-11-20T20:27:16;28.65;;;16.67;;
52396;SDS011;38322;53.108;6.308;2022-11-20T20:29:42;28.08;;;19.15;;
52396;SDS011;38322;53.108;6.308;2022-11-20T20:32:08;30.17;;;19.42;;
52396;SDS011;38322;53.108;6.308;2022-11-20T20:34:34;28.20;;;17.50;;
52396;SDS011;38322;53.108;6.308;2022-11-20T20:37:00;26.95;;;17.88;;
52396;SDS011;38322;53.108;6.308;2022-11-20T20:39:28;23.38;;;15.38;;
52396;SDS011;38322;53.108;6.308;2022-11-20T20:41:53;28.65;;;17.85;;
52396;SDS011;38322;53.108;6.308;2022-11-20T20:44:19;31.00;;;17.60;;
52396;SDS011;38322;53.108;6.308;2022-11-20T20:47:03;33.30;;;19.83;;
52396;SDS011;38322;53.108;6.308;2022-11-20T20:49:31;26.98;;;17.90;;
52396;SDS011;38322;53.108;6.308;2022-11-20T20:51:57;28.65;;;18.17;;
52396;SDS011;38322;53.108;6.308;2022-11-20T20:54:23;27.80;;;18.77;;
52396;SDS011;38322;53.108;6.308;2022-11-20T20:56:49;29.45;;;18.08;;
52396;SDS011;38322;53.108;6.308;2022-11-20T20:59:15;25.52;;;16.80;;
